sensor_id;sensor_type;location;lat;lon;timestamp;pressure;altitude;pressure_sealevel;temperature
41710;BMP280;59402;48.396;-4.472;2022-07-23T00:00:30;101243.03;;;17.57
41710;BMP280;59402;48.396;-4.472;2022-07-23T00:02:56;101232.81;;;17.55
41710;BMP280;59402;48.396;-4.472;2022-07-23T00:05:21;101228.63;;;17.54
41710;BMP280;59402;48.396;-4.472;2022-07-23T00:07:47;101226.53;;;17.58
41710;BMP280;59402;48.396;-4.472;2022-07-23T00:10:12;101222.78;;;17.60
41710;BMP280;59402;48.396;-4.472;2022-07-23T00:12:39;101216.00;;;17.59
41710;BMP280;59402;48.396;-4.472;2022-07-23T00:15:08;101213.56;;;17.50
41710;BMP280;59402;48.396;-4.472;2022-07-23T00:17:33;101201.41;;;17.42
41710;BMP280;59402;48.396;-4.472;2022-07-23T00:20:00;101202.03;;;17.37
41710;BMP280;59402;48.396;-4.472;2022-07-23T00:22:26;101194.41;;;17.27
41710;BMP280;59402;48.396;-4.472;2022-07-23T00:24:52;101196.44;;;17.16
41710;BMP280;59402;48.396;-4.472;2022-07-23T00:27:18;101187.50;;;17.10
41710;BMP280;59402;48.396;-4.472;2022-07-23T00:29:43;101186.19;;;17.06
41710;BMP280;59402;48.396;-4.472;2022-07-23T00:32:09;101192.03;;;17.08
41710;BMP280;59402;48.396;-4.472;2022-07-23T00:34:35;101190.09;;;17.10
41710;BMP280;59402;48.396;-4.472;2022-07-23T00:37:01;101187.50;;;17.10
41710;BMP280;59402;48.396;-4.472;2022-07-23T00:39:26;101180.38;;;17.04
41710;BMP280;59402;48.396;-4.472;2022-07-23T00:41:52;101178.09;;;17.02
41710;BMP280;59402;48.396;-4.472;2022-07-23T00:44:26;101184.56;;;17.05
41710;BMP280;59402;48.396;-4.472;2022-07-23T00:46:54;101187.47;;;17.02
41710;BMP280;59402;48.396;-4.472;2022-07-23T00:49:25;101182.16;;;17.04
41710;BMP280;59402;48.396;-4.472;2022-07-23T00:51:52;101184.72;;;17.04
41710;BMP280;59402;48.396;-4.472;2022-07-23T00:54:18;101185.69;;;17.03
41710;BMP280;59402;48.396;-4.472;2022-07-23T00:56:45;101184.38;;;16.99
41710;BMP280;59402;48.396;-4.472;2022-07-23T00:59:11;101183.38;;;16.92
41710;BMP280;59402;48.396;-4.472;2022-07-23T01:01:36;101176.59;;;16.91
41710;BMP280;59402;48.396;-4.472;2022-07-23T01:04:02;101171.22;;;16.85
41710;BMP280;59402;48.396;-4.472;2022-07-23T01:06:28;101175.09;;;16.89
41710;BMP280;59402;48.396;-4.472;2022-07-23T01:08:54;101170.59;;;16.91
41710;BMP280;59402;48.396;-4.472;2022-07-23T01:11:20;101163.56;;;16.75
41710;BMP280;59402;48.396;-4.472;2022-07-23T01:13:47;101153.69;;;16.71
41710;BMP280;59402;48.396;-4.472;2022-07-23T01:16:12;101145.94;;;16.71
41710;BMP280;59402;48.396;-4.472;2022-07-23T01:18:38;101138.84;;;16.73
41710;BMP280;59402;48.396;-4.472;2022-07-23T01:21:04;101128.81;;;16.70
41710;BMP280;59402;48.396;-4.472;2022-07-23T01:23:29;101113.44;;;16.68
41710;BMP280;59402;48.396;-4.472;2022-07-23T01:25:57;101112.16;;;16.72
41710;BMP280;59402;48.396;-4.472;2022-07-23T01:28:24;101114.28;;;16.77
41710;BMP280;59402;48.396;-4.472;2022-07-23T01:30:50;101108.78;;;16.80
41710;BMP280;59402;48.396;-4.472;2022-07-23T01:33:16;101101.50;;;16.75
41710;BMP280;59402;48.396;-4.472;2022-07-23T01:35:41;101098.63;;;16.78
41710;BMP280;59402;48.396;-4.472;2022-07-23T01:38:08;101091.16;;;16.75
41710;BMP280;59402;48.396;-4.472;2022-07-23T01:40:34;101096.19;;;16.77
41710;BMP280;59402;48.396;-4.472;2022-07-23T01:43:00;101094.16;;;16.63
41710;BMP280;59402;48.396;-4.472;2022-07-23T01:45:25;101085.75;;;16.61
41710;BMP280;59402;48.396;-4.472;2022-07-23T01:47:52;101084.50;;;16.65
41710;BMP280;59402;48.396;-4.472;2022-07-23T01:50:17;101095.00;;;16.71
41710;BMP280;59402;48.396;-4.472;2022-07-23T01:52:52;101092.94;;;16.75
41710;BMP280;59402;48.396;-4.472;2022-07-23T01:55:17;101089.38;;;16.76
41710;BMP280;59402;48.396;-4.472;2022-07-23T01:57:43;101101.03;;;16.80
41710;BMP280;59402;48.396;-4.472;2022-07-23T02:00:11;101102.47;;;16.74
41710;BMP280;59402;48.396;-4.472;2022-07-23T02:02:41;101096.19;;;16.77
41710;BMP280;59402;48.396;-4.472;2022-07-23T02:05:07;101113.00;;;16.81
41710;BMP280;59402;48.396;-4.472;2022-07-23T02:07:33;101111.69;;;16.77
41710;BMP280;59402;48.396;-4.472;2022-07-23T02:09:59;101110.38;;;16.73
41710;BMP280;59402;48.396;-4.472;2022-07-23T02:12:25;101107.22;;;16.87
41710;BMP280;59402;48.396;-4.472;2022-07-23T02:14:50;101112.41;;;16.87
41710;BMP280;59402;48.396;-4.472;2022-07-23T02:17:16;101117.91;;;16.92
41710;BMP280;59402;48.396;-4.472;2022-07-23T02:19:41;101123.25;;;16.98
41710;BMP280;59402;48.396;-4.472;2022-07-23T02:22:07;101121.31;;;17.00
41710;BMP280;59402;48.396;-4.472;2022-07-23T02:24:32;101125.84;;;16.98
41710;BMP280;59402;48.396;-4.472;2022-07-23T02:26:58;101134.41;;;16.99
41710;BMP280;59402;48.396;-4.472;2022-07-23T02:29:23;101136.69;;;17.02
41710;BMP280;59402;48.396;-4.472;2022-07-23T02:31:49;101138.16;;;17.04
41710;BMP280;59402;48.396;-4.472;2022-07-23T02:34:14;101138.97;;;17.04
41710;BMP280;59402;48.396;-4.472;2022-07-23T02:36:40;101136.06;;;17.07
41710;BMP280;59402;48.396;-4.472;2022-07-23T02:39:05;101137.97;;;16.98
41710;BMP280;59402;48.396;-4.472;2022-07-23T02:41:33;101142.53;;;17.03
41710;BMP280;59402;48.396;-4.472;2022-07-23T02:43:58;101149.00;;;17.07
41710;BMP280;59402;48.396;-4.472;2022-07-23T02:46:23;101149.16;;;17.06
41710;BMP280;59402;48.396;-4.472;2022-07-23T02:48:49;101150.47;;;17.10
41710;BMP280;59402;48.396;-4.472;2022-07-23T02:51:15;101154.53;;;17.12
41710;BMP280;59402;48.396;-4.472;2022-07-23T02:53:46;101157.25;;;17.11
41710;BMP280;59402;48.396;-4.472;2022-07-23T02:56:11;101152.56;;;17.06
41710;BMP280;59402;48.396;-4.472;2022-07-23T02:58:37;101159.16;;;17.01
41710;BMP280;59402;48.396;-4.472;2022-07-23T03:01:03;101155.91;;;16.91
41710;BMP280;59402;48.396;-4.472;2022-07-23T03:03:28;101153.78;;;16.95
41710;BMP280;59402;48.396;-4.472;2022-07-23T03:05:54;101159.94;;;16.94
41710;BMP280;59402;48.396;-4.472;2022-07-23T03:08:19;101157.03;;;16.97
41710;BMP280;59402;48.396;-4.472;2022-07-23T03:10:49;101152.34;;;16.92
41710;BMP280;59402;48.396;-4.472;2022-07-23T03:13:15;101147.81;;;16.94
41710;BMP280;59402;48.396;-4.472;2022-07-23T03:15:40;101151.22;;;16.95
41710;BMP280;59402;48.396;-4.472;2022-07-23T03:18:06;101145.22;;;16.94
41710;BMP280;59402;48.396;-4.472;2022-07-23T03:20:31;101149.59;;;16.94
41710;BMP280;59402;48.396;-4.472;2022-07-23T03:22:57;101139.25;;;16.94
41710;BMP280;59402;48.396;-4.472;2022-07-23T03:25:23;101131.63;;;16.92
41710;BMP280;59402;48.396;-4.472;2022-07-23T03:27:48;101130.88;;;17.00
41710;BMP280;59402;48.396;-4.472;2022-07-23T03:30:13;101129.91;;;17.01
41710;BMP280;59402;48.396;-4.472;2022-07-23T03:32:39;101128.75;;;17.03
41710;BMP280;59402;48.396;-4.472;2022-07-23T03:35:05;101118.59;;;17.09
41710;BMP280;59402;48.396;-4.472;2022-07-23T03:37:31;101121.56;;;17.14
41710;BMP280;59402;48.396;-4.472;2022-07-23T03:39:58;101121.19;;;17.09
41710;BMP280;59402;48.396;-4.472;2022-07-23T03:42:23;101110.84;;;17.09
41710;BMP280;59402;48.396;-4.472;2022-07-23T03:44:49;101107.78;;;17.06
41710;BMP280;59402;48.396;-4.472;2022-07-23T03:47:14;101104.72;;;17.10
41710;BMP280;59402;48.396;-4.472;2022-07-23T03:49:42;101100.66;;;17.08
41710;BMP280;59402;48.396;-4.472;2022-07-23T03:52:08;101103.91;;;17.10
41710;BMP280;59402;48.396;-4.472;2022-07-23T03:54:34;101101.13;;;17.11
41710;BMP280;59402;48.396;-4.472;2022-07-23T03:57:01;101100.69;;;17.16
41710;BMP280;59402;48.396;-4.472;2022-07-23T03:59:27;101100.22;;;17.20
41710;BMP280;59402;48.396;-4.472;2022-07-23T04:01:53;101098.28;;;17.22
41710;BMP280;59402;48.396;-4.472;2022-07-23T04:04:18;101095.69;;;17.22
41710;BMP280;59402;48.396;-4.472;2022-07-23T04:06:44;101095.56;;;17.24
41710;BMP280;59402;48.396;-4.472;2022-07-23T04:09:10;101094.75;;;17.23
41710;BMP280;59402;48.396;-4.472;2022-07-23T04:11:35;101093.94;;;17.23
41710;BMP280;59402;48.396;-4.472;2022-07-23T04:14:01;101090.38;;;17.24
41710;BMP280;59402;48.396;-4.472;2022-07-23T04:16:26;101091.19;;;17.24
41710;BMP280;59402;48.396;-4.472;2022-07-23T04:18:53;101091.66;;;17.20
41710;BMP280;59402;48.396;-4.472;2022-07-23T04:21:20;101085.03;;;17.17
41710;BMP280;59402;48.396;-4.472;2022-07-23T04:23:47;101091.31;;;17.15
41710;BMP280;59402;48.396;-4.472;2022-07-23T04:26:13;101090.78;;;17.11
41710;BMP280;59402;48.396;-4.472;2022-07-23T04:28:39;101092.56;;;17.11
41710;BMP280;59402;48.396;-4.472;2022-07-23T04:31:04;101091.94;;;17.09
41710;BMP280;59402;48.396;-4.472;2022-07-23T04:33:31;101090.00;;;17.11
41710;BMP280;59402;48.396;-4.472;2022-07-23T04:35:58;101083.50;;;17.07
41710;BMP280;59402;48.396;-4.472;2022-07-23T04:38:24;101081.25;;;17.04
41710;BMP280;59402;48.396;-4.472;2022-07-23T04:40:53;101076.56;;;17.00
41710;BMP280;59402;48.396;-4.472;2022-07-23T04:43:19;101076.22;;;17.02
41710;BMP280;59402;48.396;-4.472;2022-07-23T04:45:47;101089.47;;;17.07
41710;BMP280;59402;48.396;-4.472;2022-07-23T04:48:13;101085.78;;;17.10
41710;BMP280;59402;48.396;-4.472;2022-07-23T04:50:39;101091.44;;;17.13
41710;BMP280;59402;48.396;-4.472;2022-07-23T04:53:05;101091.59;;;17.12
41710;BMP280;59402;48.396;-4.472;2022-07-23T04:55:30;101092.47;;;17.20
41710;BMP280;59402;48.396;-4.472;2022-07-23T04:57:56;101102.66;;;17.22
41710;BMP280;59402;48.396;-4.472;2022-07-23T05:00:22;101107.34;;;17.26
41710;BMP280;59402;48.396;-4.472;2022-07-23T05:02:47;101106.06;;;17.30
41710;BMP280;59402;48.396;-4.472;2022-07-23T05:05:13;101107.22;;;17.36
41710;BMP280;59402;48.396;-4.472;2022-07-23T05:07:40;101107.06;;;17.37
41710;BMP280;59402;48.396;-4.472;2022-07-23T05:10:06;101114.84;;;17.45
41710;BMP280;59402;48.396;-4.472;2022-07-23T05:12:32;101120.19;;;17.51
41710;BMP280;59402;48.396;-4.472;2022-07-23T05:14:58;101124.06;;;17.47
41710;BMP280;59402;48.396;-4.472;2022-07-23T05:17:24;101124.06;;;17.47
41710;BMP280;59402;48.396;-4.472;2022-07-23T05:19:50;101120.69;;;17.55
41710;BMP280;59402;48.396;-4.472;2022-07-23T05:22:16;101113.72;;;17.55
41710;BMP280;59402;48.396;-4.472;2022-07-23T05:24:42;101118.75;;;17.57
41710;BMP280;59402;48.396;-4.472;2022-07-23T05:27:08;101107.25;;;17.59
41710;BMP280;59402;48.396;-4.472;2022-07-23T05:29:34;101113.88;;;17.54
41710;BMP280;59402;48.396;-4.472;2022-07-23T05:31:59;101091.88;;;17.50
41710;BMP280;59402;48.396;-4.472;2022-07-23T05:34:26;101095.09;;;17.60
41710;BMP280;59402;48.396;-4.472;2022-07-23T05:36:51;101090.28;;;17.65
41710;BMP280;59402;48.396;-4.472;2022-07-23T05:39:17;101090.59;;;17.70
41710;BMP280;59402;48.396;-4.472;2022-07-23T05:41:43;101075.03;;;17.62
41710;BMP280;59402;48.396;-4.472;2022-07-23T05:44:08;101075.03;;;17.62
41710;BMP280;59402;48.396;-4.472;2022-07-23T05:46:38;101073.75;;;17.66
41710;BMP280;59402;48.396;-4.472;2022-07-23T05:49:06;101066.16;;;17.72
41710;BMP280;59402;48.396;-4.472;2022-07-23T05:51:50;101068.75;;;17.80
41710;BMP280;59402;48.396;-4.472;2022-07-23T05:54:21;101070.84;;;17.76
41710;BMP280;59402;48.396;-4.472;2022-07-23T05:56:47;101066.00;;;17.81
41710;BMP280;59402;48.396;-4.472;2022-07-23T05:59:12;101063.72;;;17.86
41710;BMP280;59402;48.396;-4.472;2022-07-23T06:01:40;101064.03;;;17.99
41710;BMP280;59402;48.396;-4.472;2022-07-23T06:04:08;101079.25;;;17.94
41710;BMP280;59402;48.396;-4.472;2022-07-23T06:06:37;101065.00;;;18.06
41710;BMP280;59402;48.396;-4.472;2022-07-23T06:09:03;101065.00;;;18.06
41710;BMP280;59402;48.396;-4.472;2022-07-23T06:11:29;101060.63;;;18.14
41710;BMP280;59402;48.396;-4.472;2022-07-23T06:13:55;101065.00;;;18.22
41710;BMP280;59402;48.396;-4.472;2022-07-23T06:16:26;101080.53;;;18.22
41710;BMP280;59402;48.396;-4.472;2022-07-23T06:18:52;101082.84;;;18.09
41710;BMP280;59402;48.396;-4.472;2022-07-23T06:21:18;101084.75;;;18.15
41710;BMP280;59402;48.396;-4.472;2022-07-23T06:23:44;101087.81;;;18.18
41710;BMP280;59402;48.396;-4.472;2022-07-23T06:26:09;101094.16;;;18.24
41710;BMP280;59402;48.396;-4.472;2022-07-23T06:28:35;101090.41;;;18.34
41710;BMP280;59402;48.396;-4.472;2022-07-23T06:31:00;101096.31;;;18.50
41710;BMP280;59402;48.396;-4.472;2022-07-23T06:33:25;101105.41;;;18.54
41710;BMP280;59402;48.396;-4.472;2022-07-23T06:35:51;101105.09;;;18.42
41710;BMP280;59402;48.396;-4.472;2022-07-23T06:38:16;101113.19;;;18.46
41710;BMP280;59402;48.396;-4.472;2022-07-23T06:40:42;101109.28;;;18.58
41710;BMP280;59402;48.396;-4.472;2022-07-23T06:43:07;101111.06;;;18.58
41710;BMP280;59402;48.396;-4.472;2022-07-23T06:45:36;101111.19;;;18.72
41710;BMP280;59402;48.396;-4.472;2022-07-23T06:48:01;101099.50;;;18.76
41710;BMP280;59402;48.396;-4.472;2022-07-23T06:50:28;101092.19;;;18.72
41710;BMP280;59402;48.396;-4.472;2022-07-23T06:52:54;101103.03;;;18.83
41710;BMP280;59402;48.396;-4.472;2022-07-23T06:55:19;101092.25;;;18.64
41710;BMP280;59402;48.396;-4.472;2022-07-23T06:57:45;101086.28;;;18.55
41710;BMP280;59402;48.396;-4.472;2022-07-23T07:00:11;101091.91;;;18.67
41710;BMP280;59402;48.396;-4.472;2022-07-23T07:02:36;101091.06;;;18.74
41710;BMP280;59402;48.396;-4.472;2022-07-23T07:05:02;101102.03;;;18.84
41710;BMP280;59402;48.396;-4.472;2022-07-23T07:07:28;101101.69;;;18.95
41710;BMP280;59402;48.396;-4.472;2022-07-23T07:09:53;101105.50;;;19.14
41710;BMP280;59402;48.396;-4.472;2022-07-23T07:12:19;101123.00;;;19.20
41710;BMP280;59402;48.396;-4.472;2022-07-23T07:14:44;101129.78;;;19.21
41710;BMP280;59402;48.396;-4.472;2022-07-23T07:17:10;101128.84;;;19.14
41710;BMP280;59402;48.396;-4.472;2022-07-23T07:19:38;101126.91;;;19.16
41710;BMP280;59402;48.396;-4.472;2022-07-23T07:22:03;101130.69;;;19.06
41710;BMP280;59402;48.396;-4.472;2022-07-23T07:24:29;101139.13;;;19.08
41710;BMP280;59402;48.396;-4.472;2022-07-23T07:26:54;101138.97;;;19.02
41710;BMP280;59402;48.396;-4.472;2022-07-23T07:29:20;101132.19;;;18.93
41710;BMP280;59402;48.396;-4.472;2022-07-23T07:31:45;101121.47;;;18.88
41710;BMP280;59402;48.396;-4.472;2022-07-23T07:34:11;101131.19;;;19.02
41710;BMP280;59402;48.396;-4.472;2022-07-23T07:36:36;101136.25;;;19.25
41710;BMP280;59402;48.396;-4.472;2022-07-23T07:39:03;101146.41;;;19.35
41710;BMP280;59402;48.396;-4.472;2022-07-23T07:41:30;101156.47;;;19.38
41710;BMP280;59402;48.396;-4.472;2022-07-23T07:43:56;101142.09;;;19.27
41710;BMP280;59402;48.396;-4.472;2022-07-23T07:46:21;101146.75;;;19.32
41710;BMP280;59402;48.396;-4.472;2022-07-23T07:48:50;101160.16;;;19.43
41710;BMP280;59402;48.396;-4.472;2022-07-23T07:51:15;101164.50;;;19.50
41710;BMP280;59402;48.396;-4.472;2022-07-23T07:53:41;101172.31;;;19.73
41710;BMP280;59402;48.396;-4.472;2022-07-23T07:56:06;101179.34;;;19.64
41710;BMP280;59402;48.396;-4.472;2022-07-23T07:58:32;101181.44;;;19.69
41710;BMP280;59402;48.396;-4.472;2022-07-23T08:00:57;101185.94;;;19.75
41710;BMP280;59402;48.396;-4.472;2022-07-23T08:03:23;101189.63;;;19.58
41710;BMP280;59402;48.396;-4.472;2022-07-23T08:05:48;101186.97;;;19.66
41710;BMP280;59402;48.396;-4.472;2022-07-23T08:08:14;101185.56;;;19.55
41710;BMP280;59402;48.396;-4.472;2022-07-23T08:10:40;101182.44;;;19.38
41710;BMP280;59402;48.396;-4.472;2022-07-23T08:13:06;101178.81;;;19.47
41710;BMP280;59402;48.396;-4.472;2022-07-23T08:15:31;101186.34;;;19.64
41710;BMP280;59402;48.396;-4.472;2022-07-23T08:17:57;101199.13;;;19.95
41710;BMP280;59402;48.396;-4.472;2022-07-23T08:20:24;101216.59;;;20.09
41710;BMP280;59402;48.396;-4.472;2022-07-23T08:22:59;101219.47;;;20.14
41710;BMP280;59402;48.396;-4.472;2022-07-23T08:25:30;101223.97;;;20.20
41710;BMP280;59402;48.396;-4.472;2022-07-23T08:27:57;101218.38;;;19.86
41710;BMP280;59402;48.396;-4.472;2022-07-23T08:30:23;101213.53;;;20.06
41710;BMP280;59402;48.396;-4.472;2022-07-23T08:32:50;101230.72;;;20.29
41710;BMP280;59402;48.396;-4.472;2022-07-23T08:35:16;101223.91;;;20.06
41710;BMP280;59402;48.396;-4.472;2022-07-23T08:37:42;101226.56;;;20.20
41710;BMP280;59402;48.396;-4.472;2022-07-23T08:40:08;101235.75;;;20.30
41710;BMP280;59402;48.396;-4.472;2022-07-23T08:42:35;101234.00;;;20.45
41710;BMP280;59402;48.396;-4.472;2022-07-23T08:45:02;101230.34;;;20.54
41710;BMP280;59402;48.396;-4.472;2022-07-23T08:47:28;101230.28;;;20.40
41710;BMP280;59402;48.396;-4.472;2022-07-23T08:49:56;101234.97;;;20.44
41710;BMP280;59402;48.396;-4.472;2022-07-23T08:52:22;101235.75;;;20.30
41710;BMP280;59402;48.396;-4.472;2022-07-23T08:54:48;101237.47;;;20.38
41710;BMP280;59402;48.396;-4.472;2022-07-23T08:57:14;101241.88;;;20.59
41710;BMP280;59402;48.396;-4.472;2022-07-23T08:59:40;101245.09;;;20.61
41710;BMP280;59402;48.396;-4.472;2022-07-23T09:02:06;101249.25;;;20.70
41710;BMP280;59402;48.396;-4.472;2022-07-23T09:04:31;101249.44;;;20.83
41710;BMP280;59402;48.396;-4.472;2022-07-23T09:06:59;101251.50;;;21.02
41710;BMP280;59402;48.396;-4.472;2022-07-23T09:09:24;101248.88;;;20.73
41710;BMP280;59402;48.396;-4.472;2022-07-23T09:12:09;101261.75;;;20.89
41710;BMP280;59402;48.396;-4.472;2022-07-23T09:14:40;101257.59;;;20.94
41710;BMP280;59402;48.396;-4.472;2022-07-23T09:17:13;101257.31;;;20.75
41710;BMP280;59402;48.396;-4.472;2022-07-23T09:19:40;101249.56;;;20.67
41710;BMP280;59402;48.396;-4.472;2022-07-23T09:22:35;101265.66;;;20.71
41710;BMP280;59402;48.396;-4.472;2022-07-23T09:25:10;101274.66;;;20.83
41710;BMP280;59402;48.396;-4.472;2022-07-23T09:27:54;101261.00;;;20.81
41710;BMP280;59402;48.396;-4.472;2022-07-23T09:30:27;101275.19;;;20.92
41710;BMP280;59402;48.396;-4.472;2022-07-23T09:33:07;101281.47;;;20.84
41710;BMP280;59402;48.396;-4.472;2022-07-23T09:38:14;101281.41;;;21.06
41710;BMP280;59402;48.396;-4.472;2022-07-23T09:40:40;101276.81;;;21.36
41710;BMP280;59402;48.396;-4.472;2022-07-23T09:43:05;101291.22;;;21.47
41710;BMP280;59402;48.396;-4.472;2022-07-23T09:45:31;101302.72;;;21.52
41710;BMP280;59402;48.396;-4.472;2022-07-23T09:48:13;101312.22;;;21.59
41710;BMP280;59402;48.396;-4.472;2022-07-23T09:50:42;101293.94;;;21.74
41710;BMP280;59402;48.396;-4.472;2022-07-23T09:53:09;101300.78;;;21.32
41710;BMP280;59402;48.396;-4.472;2022-07-23T09:55:36;101299.75;;;21.26
41710;BMP280;59402;48.396;-4.472;2022-07-23T09:58:04;101284.00;;;20.91
41710;BMP280;59402;48.396;-4.472;2022-07-23T10:00:31;101294.81;;;20.66
41710;BMP280;59402;48.396;-4.472;2022-07-23T10:02:57;101296.31;;;20.61
41710;BMP280;59402;48.396;-4.472;2022-07-23T10:05:27;101278.91;;;20.39
41710;BMP280;59402;48.396;-4.472;2022-07-23T10:08:12;101275.84;;;20.36
41710;BMP280;59402;48.396;-4.472;2022-07-23T10:10:57;101279.53;;;20.41
41710;BMP280;59402;48.396;-4.472;2022-07-23T10:13:24;101282.19;;;20.55
41710;BMP280;59402;48.396;-4.472;2022-07-23T10:16:09;101277.84;;;20.48
41710;BMP280;59402;48.396;-4.472;2022-07-23T10:18:34;101279.22;;;20.81
41710;BMP280;59402;48.396;-4.472;2022-07-23T10:21:06;101273.69;;;20.98
41710;BMP280;59402;48.396;-4.472;2022-07-23T10:23:48;101289.22;;;21.06
41710;BMP280;59402;48.396;-4.472;2022-07-23T10:26:32;101297.75;;;21.00
41710;BMP280;59402;48.396;-4.472;2022-07-23T10:29:20;101297.75;;;21.14
41710;BMP280;59402;48.396;-4.472;2022-07-23T10:32:20;101288.94;;;21.01
41710;BMP280;59402;48.396;-4.472;2022-07-23T10:37:34;101297.28;;;20.96
41710;BMP280;59402;48.396;-4.472;2022-07-23T10:40:15;101297.78;;;20.63
41710;BMP280;59402;48.396;-4.472;2022-07-23T10:42:44;101305.19;;;21.03
41710;BMP280;59402;48.396;-4.472;2022-07-23T10:45:38;101302.03;;;21.07
41710;BMP280;59402;48.396;-4.472;2022-07-23T10:48:16;101310.00;;;21.42
41710;BMP280;59402;48.396;-4.472;2022-07-23T10:50:43;101311.63;;;21.43
41710;BMP280;59402;48.396;-4.472;2022-07-23T10:53:15;101319.03;;;21.32
41710;BMP280;59402;48.396;-4.472;2022-07-23T10:55:44;101310.66;;;21.22
41710;BMP280;59402;48.396;-4.472;2022-07-23T10:58:10;101318.84;;;21.19
41710;BMP280;59402;48.396;-4.472;2022-07-23T11:00:37;101322.06;;;21.07
41710;BMP280;59402;48.396;-4.472;2022-07-23T11:03:06;101317.97;;;21.26
41710;BMP280;59402;48.396;-4.472;2022-07-23T11:05:50;101325.88;;;21.33
41710;BMP280;59402;48.396;-4.472;2022-07-23T11:08:19;101321.81;;;21.30
41710;BMP280;59402;48.396;-4.472;2022-07-23T11:10:46;101332.50;;;21.64
41710;BMP280;59402;48.396;-4.472;2022-07-23T11:24:09;101329.66;;;22.08
41710;BMP280;59402;48.396;-4.472;2022-07-23T11:32:28;101334.84;;;22.43
41710;BMP280;59402;48.396;-4.472;2022-07-23T11:34:52;101332.41;;;22.42
41710;BMP280;59402;48.396;-4.472;2022-07-23T11:37:40;101332.56;;;23.02
41710;BMP280;59402;48.396;-4.472;2022-07-23T11:40:14;101347.28;;;23.10
41710;BMP280;59402;48.396;-4.472;2022-07-23T11:45:23;101348.81;;;22.57
41710;BMP280;59402;48.396;-4.472;2022-07-23T11:47:49;101345.66;;;23.09
41710;BMP280;59402;48.396;-4.472;2022-07-23T11:50:14;101364.50;;;23.04
41710;BMP280;59402;48.396;-4.472;2022-07-23T11:52:40;101360.00;;;22.92
41710;BMP280;59402;48.396;-4.472;2022-07-23T11:55:08;101349.94;;;22.89
41710;BMP280;59402;48.396;-4.472;2022-07-23T11:57:36;101356.44;;;23.27
41710;BMP280;59402;48.396;-4.472;2022-07-23T12:00:09;101341.59;;;22.79
41710;BMP280;59402;48.396;-4.472;2022-07-23T12:02:40;101355.16;;;23.43
41710;BMP280;59402;48.396;-4.472;2022-07-23T12:05:07;101371.72;;;23.02
41710;BMP280;59402;48.396;-4.472;2022-07-23T12:07:40;101358.66;;;22.55
41710;BMP280;59402;48.396;-4.472;2022-07-23T12:10:16;101353.34;;;22.48
41710;BMP280;59402;48.396;-4.472;2022-07-23T12:12:55;101349.03;;;22.55
41710;BMP280;59402;48.396;-4.472;2022-07-23T12:15:26;101354.41;;;22.74
41710;BMP280;59402;48.396;-4.472;2022-07-23T12:17:52;101358.63;;;22.96
41710;BMP280;59402;48.396;-4.472;2022-07-23T12:20:29;101352.19;;;22.51
41710;BMP280;59402;48.396;-4.472;2022-07-23T12:22:57;101356.81;;;23.24
41710;BMP280;59402;48.396;-4.472;2022-07-23T12:25:26;101357.59;;;23.18
41710;BMP280;59402;48.396;-4.472;2022-07-23T12:28:18;101358.13;;;23.40
41710;BMP280;59402;48.396;-4.472;2022-07-23T12:30:46;101365.22;;;23.53
41710;BMP280;59402;48.396;-4.472;2022-07-23T12:33:15;101361.06;;;24.04
41710;BMP280;59402;48.396;-4.472;2022-07-23T12:35:47;101356.78;;;23.84
41710;BMP280;59402;48.396;-4.472;2022-07-23T12:38:21;101377.94;;;24.61
41710;BMP280;59402;48.396;-4.472;2022-07-23T12:40:49;101378.75;;;25.26
41710;BMP280;59402;48.396;-4.472;2022-07-23T12:43:33;101372.69;;;24.55
41710;BMP280;59402;48.396;-4.472;2022-07-23T12:46:06;101370.25;;;24.34
41710;BMP280;59402;48.396;-4.472;2022-07-23T12:48:39;101364.47;;;23.99
41710;BMP280;59402;48.396;-4.472;2022-07-23T12:51:16;101360.22;;;24.50
41710;BMP280;59402;48.396;-4.472;2022-07-23T12:53:45;101369.16;;;23.69
41710;BMP280;59402;48.396;-4.472;2022-07-23T12:56:13;101354.38;;;23.49
41710;BMP280;59402;48.396;-4.472;2022-07-23T12:58:51;101335.84;;;23.44
41710;BMP280;59402;48.396;-4.472;2022-07-23T13:06:29;101341.84;;;23.11
41710;BMP280;59402;48.396;-4.472;2022-07-23T13:08:55;101349.84;;;23.64
41710;BMP280;59402;48.396;-4.472;2022-07-23T13:11:21;101359.25;;;23.99
41710;BMP280;59402;48.396;-4.472;2022-07-23T13:13:46;101341.13;;;23.24
41710;BMP280;59402;48.396;-4.472;2022-07-23T13:16:12;101340.84;;;23.73
41710;BMP280;59402;48.396;-4.472;2022-07-23T13:18:37;101330.25;;;23.87
41710;BMP280;59402;48.396;-4.472;2022-07-23T13:21:03;101329.72;;;24.17
41710;BMP280;59402;48.396;-4.472;2022-07-23T13:23:28;101346.09;;;24.58
41710;BMP280;59402;48.396;-4.472;2022-07-23T13:25:54;101343.91;;;25.12
41710;BMP280;59402;48.396;-4.472;2022-07-23T13:28:20;101361.03;;;25.15
41710;BMP280;59402;48.396;-4.472;2022-07-23T13:30:49;101347.50;;;25.31
41710;BMP280;59402;48.396;-4.472;2022-07-23T13:33:20;101382.31;;;25.70
41710;BMP280;59402;48.396;-4.472;2022-07-23T13:35:46;101347.81;;;26.10
41710;BMP280;59402;48.396;-4.472;2022-07-23T13:38:13;101351.78;;;26.31
41710;BMP280;59402;48.396;-4.472;2022-07-23T13:40:41;101360.63;;;27.16
41710;BMP280;59402;48.396;-4.472;2022-07-23T13:43:12;101359.38;;;26.70
41710;BMP280;59402;48.396;-4.472;2022-07-23T13:45:38;101342.91;;;26.56
41710;BMP280;59402;48.396;-4.472;2022-07-23T13:48:05;101347.28;;;26.38
41710;BMP280;59402;48.396;-4.472;2022-07-23T13:50:31;101361.66;;;26.90
41710;BMP280;59402;48.396;-4.472;2022-07-23T13:52:56;101332.81;;;27.26
41710;BMP280;59402;48.396;-4.472;2022-07-23T13:55:22;101358.22;;;25.92
41710;BMP280;59402;48.396;-4.472;2022-07-23T13:57:48;101356.91;;;25.51
41710;BMP280;59402;48.396;-4.472;2022-07-23T14:00:13;101349.34;;;26.30
41710;BMP280;59402;48.396;-4.472;2022-07-23T14:02:40;101349.28;;;25.99
41710;BMP280;59402;48.396;-4.472;2022-07-23T14:05:08;101365.56;;;26.14
41710;BMP280;59402;48.396;-4.472;2022-07-23T14:07:34;101356.94;;;26.44
41710;BMP280;59402;48.396;-4.472;2022-07-23T14:10:01;101379.41;;;26.64
41710;BMP280;59402;48.396;-4.472;2022-07-23T14:12:26;101363.88;;;26.63
41710;BMP280;59402;48.396;-4.472;2022-07-23T14:14:52;101386.91;;;26.91
41710;BMP280;59402;48.396;-4.472;2022-07-23T14:17:18;101366.00;;;27.03